Time;durP1;ratioP1;P1;durP2;ratioP2;P2;SDS_P1;SDS_P2;PMS_P1;PMS_P2;Temp;Humidity;BMP_temperature;BMP_pressure;BME280_temperature;BME280_humidity;BME280_pressure;Samples;Min_cycle;Max_cycle;Signal;HPM_P1;HPM_P2
2023/08/28 00:02:07;;;;;;;2.05;1.70;;;;;;;13.77;100.00;95681.91;5102404;28;20030;-73
2023/08/28 00:04:32;;;;;;;3.70;1.95;;;;;;;13.74;100.00;95691.00;5111975;27;20097;-74
2023/08/28 00:06:57;;;;;;;1.88;1.70;;;;;;;13.78;100.00;95706.53;5112192;27;20036;-74
2023/08/28 00:09:23;;;;;;;1.98;1.80;;;;;;;13.67;100.00;95699.75;5114611;27;20508;-74
2023/08/28 00:11:48;;;;;;;1.98;1.77;;;;;;;13.68;100.00;95696.09;5116039;27;20028;-74
2023/08/28 00:14:14;;;;;;;6.65;1.95;;;;;;;13.75;100.00;95713.00;5104179;28;20024;-73
2023/08/28 00:16:39;;;;;;;1.95;1.80;;;;;;;13.69;100.00;95693.31;5107340;27;20031;-73
2023/08/28 00:19:05;;;;;;;4.43;2.00;;;;;;;13.68;100.00;95670.50;5107869;27;20844;-74
2023/08/28 00:21:31;;;;;;;2.95;2.00;;;;;;;13.69;100.00;95680.09;5108844;27;20030;-73
2023/08/28 00:23:56;;;;;;;1.92;1.83;;;;;;;13.74;100.00;95675.13;5109916;27;20027;-73
2023/08/28 00:26:22;;;;;;;1.88;1.77;;;;;;;13.73;100.00;95668.19;5119393;27;20029;-74
2023/08/28 00:28:47;;;;;;;4.75;2.08;;;;;;;13.75;100.00;95663.56;5113078;27;20019;-73
2023/08/28 00:31:12;;;;;;;5.55;2.00;;;;;;;13.71;100.00;95659.59;5097550;27;20118;-72
2023/08/28 00:33:38;;;;;;;3.33;1.80;;;;;;;13.77;100.00;95668.69;5111750;27;20030;-73
2023/08/28 00:36:03;;;;;;;2.17;2.03;;;;;;;13.80;100.00;95693.97;5113537;27;20023;-74
2023/08/28 00:38:29;;;;;;;1.92;1.70;;;;;;;13.86;100.00;95688.88;5108097;27;20065;-73
2023/08/28 00:40:54;;;;;;;1.60;1.50;;;;;;;13.87;100.00;95700.31;5111028;27;20032;-73
2023/08/28 00:43:20;;;;;;;2.45;1.88;;;;;;;13.76;100.00;95704.09;5109069;27;20084;-72
2023/08/28 00:45:45;;;;;;;2.10;1.88;;;;;;;13.79;100.00;95700.25;5103694;27;20032;-73
2023/08/28 00:48:13;;;;;;;2.05;1.65;;;;;;;13.81;100.00;95690.34;5100678;27;20059;-73
2023/08/28 00:50:39;;;;;;;1.80;1.70;;;;;;;13.71;100.00;95680.75;5112064;27;20056;-73
2023/08/28 00:53:04;;;;;;;2.72;1.90;;;;;;;13.72;100.00;95671.00;5097356;28;20110;-73
2023/08/28 00:55:33;;;;;;;2.88;1.70;;;;;;;13.69;100.00;95676.59;5120518;27;20070;-73
2023/08/28 00:57:58;;;;;;;2.55;1.90;;;;;;;13.75;100.00;95650.31;5115880;27;20028;-73
2023/08/28 01:00:24;;;;;;;1.92;1.83;;;;;;;13.63;100.00;95656.94;5095659;27;20546;-73
2023/08/28 01:02:49;;;;;;;2.05;1.95;;;;;;;13.70;100.00;95626.19;5112419;27;20103;-73
2023/08/28 01:05:15;;;;;;;1.90;1.80;;;;;;;13.72;100.00;95633.97;5106432;27;20031;-73
2023/08/28 01:08:24;;;;;;;2.33;1.92;;;;;;;13.60;100.00;95630.81;5097564;28;20114;-72
2023/08/28 01:10:55;;;;;;;1.80;1.70;;;;;;;13.59;100.00;95629.13;5037105;28;20090;-72
2023/08/28 01:13:36;;;;;;;3.47;1.70;;;;;;;13.60;100.00;95633.44;5112227;27;20023;-72
2023/08/28 01:16:03;;;;;;;1.77;1.67;;;;;;;13.51;100.00;95618.53;5101239;27;20024;-73
2023/08/28 01:18:30;;;;;;;3.42;1.63;;;;;;;13.57;100.00;95644.31;5114218;27;20578;-73
2023/08/28 01:20:58;;;;;;;3.38;2.00;;;;;;;13.56;100.00;95655.91;5108114;27;20035;-72
2023/08/28 01:23:31;;;;;;;1.98;1.88;;;;;;;13.44;100.00;95658.84;5112561;27;20030;-72
2023/08/28 01:25:58;;;;;;;2.15;2.03;;;;;;;13.40;100.00;95660.16;5104766;27;20027;-72
2023/08/28 01:28:25;;;;;;;2.03;1.77;;;;;;;13.33;100.00;95673.16;5111436;27;20016;-72
2023/08/28 01:30:53;;;;;;;2.13;1.50;;;;;;;13.29;100.00;95679.78;5107900;27;20040;-72
2023/08/28 01:33:19;;;;;;;1.80;1.70;;;;;;;13.31;100.00;95680.44;5106355;27;20041;-72
2023/08/28 01:35:52;;;;;;;4.78;1.60;;;;;;;13.24;100.00;95673.28;5104293;27;20489;-72
2023/08/28 01:38:19;;;;;;;1.75;1.65;;;;;;;13.21;100.00;95673.63;5097093;27;20020;-72
2023/08/28 01:40:52;;;;;;;1.48;1.40;;;;;;;13.19;100.00;95684.34;5104881;27;20107;-71
2023/08/28 01:43:21;;;;;;;1.98;1.85;;;;;;;13.19;100.00;95679.03;5098263;27;20066;-72
2023/08/28 01:45:48;;;;;;;1.77;1.67;;;;;;;13.14;100.00;95686.63;5101979;27;20061;-72
2023/08/28 01:48:13;;;;;;;1.98;1.88;;;;;;;13.15;100.00;95685.66;5100341;27;20024;-72
2023/08/28 01:50:38;;;;;;;3.70;3.00;;;;;;;13.11;100.00;95674.53;5100349;27;20039;-73
2023/08/28 01:53:04;;;;;;;2.53;2.08;;;;;;;13.10;100.00;95677.38;5106803;27;20027;-73
2023/08/28 01:55:45;;;;;;;2.47;2.28;;;;;;;13.03;100.00;95671.88;5106399;27;20103;-72
2023/08/28 01:58:11;;;;;;;2.22;2.05;;;;;;;12.97;100.00;95672.50;5101278;27;20565;-73
2023/08/28 02:00:36;;;;;;;3.92;2.50;;;;;;;12.97;100.00;95672.50;5103244;27;20019;-73
2023/08/28 02:03:01;;;;;;;3.85;2.30;;;;;;;13.00;100.00;95666.91;5102790;27;20648;-73
2023/08/28 02:05:27;;;;;;;3.28;2.05;;;;;;;12.88;100.00;95674.28;5105203;27;20020;-73
2023/08/28 02:07:52;;;;;;;1.88;1.77;;;;;;;12.95;100.00;95670.00;5104242;28;20023;-73
2023/08/28 02:10:18;;;;;;;2.65;1.90;;;;;;;12.88;100.00;95656.59;5104104;27;20024;-73
2023/08/28 02:12:43;;;;;;;2.42;2.22;;;;;;;12.89;100.00;95647.69;5104605;27;20032;-73
2023/08/28 02:15:09;;;;;;;2.13;1.95;;;;;;;12.78;100.00;95649.78;5107320;27;20148;-73
2023/08/28 02:17:34;;;;;;;3.97;2.20;;;;;;;12.84;100.00;95657.09;5105871;27;20024;-73
2023/08/28 02:20:00;;;;;;;2.45;1.65;;;;;;;12.80;100.00;95646.00;5117404;27;20502;-73
2023/08/28 02:22:25;;;;;;;5.82;2.17;;;;;;;12.77;100.00;95654.25;5107499;27;20454;-73
2023/08/28 02:24:50;;;;;;;2.53;2.33;;;;;;;12.73;100.00;95663.47;5100255;27;20055;-74
2023/08/28 02:27:16;;;;;;;2.90;2.38;;;;;;;12.63;100.00;95650.38;5103855;27;20012;-74
2023/08/28 02:29:41;;;;;;;3.75;2.17;;;;;;;12.62;100.00;95661.91;5090122;28;20683;-74
2023/08/28 02:32:07;;;;;;;1.90;1.80;;;;;;;12.54;100.00;95649.50;5096052;27;20016;-73
2023/08/28 02:34:32;;;;;;;1.88;1.70;;;;;;;12.55;100.00;95642.38;5112229;27;20018;-73
2023/08/28 02:36:58;;;;;;;2.22;2.08;;;;;;;12.55;100.00;95640.56;5104346;28;20608;-74
2023/08/28 02:39:23;;;;;;;2.25;1.98;;;;;;;12.54;100.00;95644.22;5113277;27;20019;-73
2023/08/28 02:41:49;;;;;;;3.35;2.60;;;;;;;12.53;100.00;95636.44;5108523;27;20028;-74
2023/08/28 02:44:14;;;;;;;3.13;2.20;;;;;;;12.57;100.00;95627.19;5104183;28;20123;-73
2023/08/28 02:46:39;;;;;;;3.35;2.05;;;;;;;12.47;100.00;95627.31;5103292;28;20108;-73
2023/08/28 02:49:05;;;;;;;3.30;2.17;;;;;;;12.45;100.00;95627.47;5103304;28;20047;-73
2023/08/28 02:51:30;;;;;;;2.45;2.00;;;;;;;12.45;100.00;95627.47;5101379;27;20045;-74
2023/08/28 02:53:56;;;;;;;3.15;2.20;;;;;;;12.45;100.00;95626.63;5106310;27;20096;-74
2023/08/28 02:56:25;;;;;;;2.60;2.30;;;;;;;12.46;100.00;95630.94;5106453;27;20020;-74
2023/08/28 02:58:51;;;;;;;3.22;2.50;;;;;;;12.49;100.00;95625.38;5102641;27;20412;-74
2023/08/28 03:01:17;;;;;;;4.03;2.20;;;;;;;12.45;100.00;95631.91;5104268;27;20485;-74
2023/08/28 03:03:43;;;;;;;3.60;2.10;;;;;;;12.46;100.00;95625.66;5105816;27;20012;-74
2023/08/28 03:06:08;;;;;;;6.75;2.38;;;;;;;12.48;100.00;95617.59;5101089;28;20433;-74
2023/08/28 03:08:34;;;;;;;2.10;2.00;;;;;;;12.42;100.00;95621.66;5102986;27;20030;-74
2023/08/28 03:10:59;;;;;;;5.85;2.22;;;;;;;12.39;100.00;95616.69;5100312;27;20518;-73
2023/08/28 03:13:25;;;;;;;3.70;2.33;;;;;;;12.38;100.00;95626.44;5104314;27;20774;-74
2023/08/28 03:15:50;;;;;;;4.70;2.30;;;;;;;12.37;100.00;95630.03;5088596;27;20023;-73
2023/08/28 03:18:15;;;;;;;2.20;2.00;;;;;;;12.30;100.00;95621.94;5092766;28;20035;-73
2023/08/28 03:20:41;;;;;;;2.40;2.17;;;;;;;12.30;100.00;95619.28;5106999;28;20203;-73
2023/08/28 03:23:09;;;;;;;3.17;2.35;;;;;;;12.30;100.00;95619.28;5105193;28;20035;-73
2023/08/28 03:25:35;;;;;;;2.67;2.28;;;;;;;12.32;100.00;95622.59;5113915;28;20042;-73
2023/08/28 03:28:01;;;;;;;3.17;2.20;;;;;;;12.33;100.00;95612.88;5117729;27;20028;-73
2023/08/28 03:30:27;;;;;;;2.78;2.50;;;;;;;12.30;100.00;95614.03;5111066;27;20120;-74
2023/08/28 03:32:53;;;;;;;4.40;2.42;;;;;;;12.25;100.00;95605.72;5112291;28;20047;-73
2023/08/28 03:35:18;;;;;;;5.20;2.30;;;;;;;12.28;100.00;95612.50;5116338;28;20027;-74
2023/08/28 03:37:44;;;;;;;6.80;2.58;;;;;;;12.22;100.00;95602.56;5109217;28;20023;-74
2023/08/28 03:40:10;;;;;;;2.42;2.22;;;;;;;12.12;100.00;95595.56;5102399;27;20040;-73
2023/08/28 03:42:36;;;;;;;2.63;2.25;;;;;;;12.15;100.00;95611.09;5107667;27;20027;-73
2023/08/28 03:45:01;;;;;;;3.40;2.05;;;;;;;12.04;100.00;95593.69;5117478;27;20046;-73
2023/08/28 03:47:26;;;;;;;2.78;2.05;;;;;;;12.07;100.00;95604.94;5110317;27;20020;-74
2023/08/28 03:49:52;;;;;;;4.13;2.08;;;;;;;12.08;100.00;95598.69;5118358;27;20037;-74
2023/08/28 03:52:17;;;;;;;4.03;2.10;;;;;;;12.00;100.00;95597.59;5099986;27;20077;-74
2023/08/28 03:54:43;;;;;;;4.20;1.80;;;;;;;12.00;100.00;95591.50;5106553;27;20063;-74
2023/08/28 03:57:08;;;;;;;2.75;1.90;;;;;;;11.82;100.00;95592.34;5109000;27;20032;-73
2023/08/28 03:59:33;;;;;;;2.20;2.00;;;;;;;11.85;100.00;95586.75;5110424;27;20024;-73
2023/08/28 04:01:59;;;;;;;5.78;1.92;;;;;;;11.89;100.00;95593.38;5113207;27;20034;-74
2023/08/28 04:04:27;;;;;;;2.58;2.13;;;;;;;11.83;100.00;95598.47;5108411;27;20034;-74
2023/08/28 04:06:52;;;;;;;5.40;1.90;;;;;;;11.87;100.00;95586.63;5113018;27;20479;-73
2023/08/28 04:09:18;;;;;;;1.90;1.75;;;;;;;11.79;100.00;95579.47;5114686;27;20024;-74
2023/08/28 04:11:43;;;;;;;4.45;2.10;;;;;;;11.82;100.00;95580.94;5125630;27;20039;-73
2023/08/28 04:14:09;;;;;;;3.05;2.10;;;;;;;11.75;100.00;95565.75;5107424;28;20047;-73
2023/08/28 04:16:35;;;;;;;3.20;1.83;;;;;;;11.75;100.00;95572.84;5111680;27;20027;-73
2023/08/28 04:19:00;;;;;;;3.65;2.25;;;;;;;11.86;100.00;95558.59;5106835;28;20079;-73
2023/08/28 04:21:25;;;;;;;2.42;2.10;;;;;;;11.78;100.00;95553.22;5115329;27;20030;-73
2023/08/28 04:23:51;;;;;;;2.60;1.90;;;;;;;11.74;100.00;95550.91;5115961;27;20095;-73
2023/08/28 04:26:16;;;;;;;2.28;1.95;;;;;;;11.70;100.00;95539.00;5118384;27;20165;-73
2023/08/28 04:28:42;;;;;;;3.72;1.80;;;;;;;11.71;100.00;95545.09;5112633;27;20535;-73
2023/08/28 04:31:12;;;;;;;2.33;1.73;;;;;;;11.72;100.00;95525.69;5113194;27;20066;-73
2023/08/28 04:33:38;;;;;;;1.83;1.73;;;;;;;11.75;100.00;95528.81;5106617;27;20472;-72
2023/08/28 04:36:03;;;;;;;2.70;2.00;;;;;;;11.77;100.00;95517.28;5118823;27;20024;-73
2023/08/28 04:38:29;;;;;;;4.38;2.35;;;;;;;11.79;100.00;95517.97;5100974;27;20035;-73
2023/08/28 04:40:54;;;;;;;2.30;1.85;;;;;;;11.79;100.00;95510.88;5115899;27;20027;-72
2023/08/28 04:43:20;;;;;;;2.22;1.70;;;;;;;11.78;100.00;95519.78;5112311;27;20036;-72
2023/08/28 04:45:48;;;;;;;4.03;1.60;;;;;;;11.88;100.00;95527.59;5117271;27;20039;-72
2023/08/28 04:48:14;;;;;;;2.13;1.83;;;;;;;11.88;100.00;95535.53;5109985;27;20077;-73
2023/08/28 04:50:39;;;;;;;3.20;1.73;;;;;;;11.84;100.00;95529.72;5092989;28;20031;-73
2023/08/28 04:53:05;;;;;;;2.38;1.90;;;;;;;11.79;100.00;95525.88;5103514;28;20027;-73
2023/08/28 04:55:30;;;;;;;2.38;2.00;;;;;;;11.74;100.00;95523.72;5109199;27;20016;-73
2023/08/28 04:57:56;;;;;;;2.58;1.80;;;;;;;11.72;100.00;95510.66;5108961;27;20035;-73
2023/08/28 05:00:21;;;;;;;2.50;1.77;;;;;;;11.70;100.00;95522.34;5105965;27;20548;-73
2023/08/28 05:02:46;;;;;;;1.83;1.67;;;;;;;11.71;100.00;95508.16;5121168;27;20027;-73
2023/08/28 05:05:12;;;;;;;2.08;1.90;;;;;;;11.67;100.00;95499.75;5107431;27;20056;-73
2023/08/28 05:07:38;;;;;;;5.90;1.90;;;;;;;11.69;100.00;95504.88;5113758;27;20032;-73
2023/08/28 05:10:03;;;;;;;2.88;1.58;;;;;;;11.67;100.00;95512.09;5105093;28;20053;-72
2023/08/28 05:12:28;;;;;;;2.60;1.80;;;;;;;11.68;100.00;95511.97;5112881;27;20209;-73
2023/08/28 05:14:54;;;;;;;4.20;2.00;;;;;;;11.68;100.00;95508.47;5107415;27;20028;-73
2023/08/28 05:17:19;;;;;;;2.22;1.73;;;;;;;11.66;100.00;95511.28;5111636;27;20023;-73
2023/08/28 05:19:45;;;;;;;3.70;2.00;;;;;;;11.67;100.00;95510.31;5123343;27;20043;-73
2023/08/28 05:22:10;;;;;;;5.80;2.13;;;;;;;11.68;100.00;95529.59;5113879;27;20042;-72
2023/08/28 05:24:35;;;;;;;2.38;1.75;;;;;;;11.62;100.00;95512.59;5109686;27;20035;-73
2023/08/28 05:27:01;;;;;;;2.53;2.33;;;;;;;11.65;100.00;95532.53;5105944;27;20127;-73
2023/08/28 05:29:26;;;;;;;2.55;2.08;;;;;;;11.64;100.00;95526.44;5100060;27;20047;-72
2023/08/28 05:31:51;;;;;;;3.65;1.90;;;;;;;11.69;100.00;95542.63;5107039;28;20070;-72
2023/08/28 05:34:17;;;;;;;2.17;1.92;;;;;;;11.66;100.00;95540.28;5095481;28;20036;-73
2023/08/28 05:36:42;;;;;;;2.30;2.10;;;;;;;11.67;100.00;95539.31;5107090;27;20066;-73
2023/08/28 05:39:07;;;;;;;4.03;2.15;;;;;;;11.71;100.00;95532.75;5109413;27;20191;-73
2023/08/28 05:41:33;;;;;;;3.38;1.90;;;;;;;11.68;100.00;95538.34;5113767;27;20729;-73
2023/08/28 05:43:58;;;;;;;3.05;2.10;;;;;;;11.68;100.00;95551.53;5112511;27;20036;-72
2023/08/28 05:46:24;;;;;;;2.40;1.85;;;;;;;11.64;100.00;95547.53;5111607;27;20035;-73
2023/08/28 05:48:50;;;;;;;2.17;1.98;;;;;;;11.66;100.00;95532.38;5111345;27;20064;-72
2023/08/28 05:51:15;;;;;;;2.22;2.03;;;;;;;11.70;100.00;95535.53;5108510;28;20028;-72
2023/08/28 05:53:40;;;;;;;2.60;2.00;;;;;;;11.69;100.00;95536.50;5106860;27;20027;-72
2023/08/28 05:56:06;;;;;;;3.38;2.28;;;;;;;11.68;100.00;95535.69;5104875;27;20035;-72
2023/08/28 05:58:31;;;;;;;2.63;1.90;;;;;;;11.66;100.00;95537.66;5107613;27;20107;-72
2023/08/28 06:00:57;;;;;;;3.78;2.25;;;;;;;11.71;100.00;95521.34;5104443;27;20046;-72
2023/08/28 06:03:22;;;;;;;3.28;2.50;;;;;;;11.60;100.00;95533.81;5089487;28;20020;-72
2023/08/28 06:05:48;;;;;;;4.70;2.05;;;;;;;11.65;100.00;95509.63;5104984;27;20023;-73
2023/08/28 06:08:15;;;;;;;2.78;2.10;;;;;;;11.68;100.00;95516.41;5107196;27;20078;-72
2023/08/28 06:10:42;;;;;;;2.58;1.80;;;;;;;11.74;100.00;95532.44;5103715;27;20058;-73
2023/08/28 06:13:07;;;;;;;3.10;1.80;;;;;;;11.61;100.00;95529.38;5103204;28;20023;-72
2023/08/28 06:15:33;;;;;;;3.45;1.90;;;;;;;11.58;100.00;95524.38;5109486;27;20031;-72
2023/08/28 06:17:58;;;;;;;2.13;1.90;;;;;;;11.54;100.00;95517.78;5094679;28;20035;-73
2023/08/28 06:20:24;;;;;;;1.65;1.55;;;;;;;11.55;100.00;95535.25;5107288;27;20120;-73
2023/08/28 06:22:50;;;;;;;7.20;2.15;;;;;;;11.53;100.00;95537.22;5098008;27;20020;-73
2023/08/28 06:25:15;;;;;;;5.40;2.20;;;;;;;11.50;100.00;95533.09;5085604;28;20073;-73
2023/08/28 06:27:41;;;;;;;4.95;2.20;;;;;;;11.54;100.00;95552.88;5108289;27;20505;-72
2023/08/28 06:30:07;;;;;;;4.35;2.22;;;;;;;11.50;100.00;95545.44;5113683;27;20079;-73
2023/08/28 06:32:33;;;;;;;2.10;2.00;;;;;;;11.53;100.00;95547.75;5099198;28;20059;-73
2023/08/28 06:34:59;;;;;;;6.10;2.20;;;;;;;11.52;100.00;95541.66;5117346;27;20033;-72
2023/08/28 06:37:24;;;;;;;2.90;2.38;;;;;;;11.54;100.00;95557.31;5116888;27;20028;-72
2023/08/28 06:39:53;;;;;;;3.10;2.22;;;;;;;11.49;100.00;95541.13;5104074;27;20032;-72
2023/08/28 06:42:19;;;;;;;2.67;2.38;;;;;;;11.43;100.00;95542.56;5082437;28;20027;-72
2023/08/28 06:44:45;;;;;;;3.88;2.20;;;;;;;11.37;100.00;95517.63;5105789;27;20115;-72
2023/08/28 06:47:10;;;;;;;4.28;3.40;;;;;;;11.42;100.00;95554.94;5104728;27;20393;-73
2023/08/28 06:49:36;;;;;;;3.33;2.42;;;;;;;11.41;100.00;95540.09;5103431;27;20099;-72
2023/08/28 06:52:03;;;;;;;4.57;2.28;;;;;;;11.47;100.00;95538.63;5100919;28;20027;-73
2023/08/28 06:54:29;;;;;;;3.75;2.75;;;;;;;11.40;100.00;95534.97;5109663;27;20434;-72
2023/08/28 06:56:54;;;;;;;3.55;2.35;;;;;;;11.39;100.00;95533.31;5098715;27;20019;-73
2023/08/28 06:59:20;;;;;;;2.30;2.00;;;;;;;11.40;100.00;95534.97;5115687;27;20027;-73
2023/08/28 07:01:45;;;;;;;3.30;1.83;;;;;;;11.43;100.00;95538.13;5111576;27;20023;-73
2023/08/28 07:04:10;;;;;;;2.67;1.98;;;;;;;11.43;100.00;95540.75;5102321;27;20042;-72
2023/08/28 07:06:36;;;;;;;2.13;1.80;;;;;;;11.45;100.00;95525.63;5103711;28;20037;-73
2023/08/28 07:09:01;;;;;;;2.67;1.70;;;;;;;11.57;100.00;95538.56;5103291;28;20057;-73
2023/08/28 07:11:27;;;;;;;2.22;1.67;;;;;;;11.55;100.00;95540.53;5104859;27;20076;-73
2023/08/28 07:13:54;;;;;;;3.60;2.03;;;;;;;11.52;100.00;95531.13;5115779;27;20023;-73
2023/08/28 07:16:20;;;;;;;2.65;1.83;;;;;;;11.49;100.00;95535.84;5108605;27;20023;-73
2023/08/28 07:18:45;;;;;;;2.30;2.05;;;;;;;11.46;100.00;95532.56;5112506;28;20635;-73
2023/08/28 07:21:11;;;;;;;2.17;1.92;;;;;;;11.49;100.00;95541.94;5112133;28;21622;-72
2023/08/28 07:23:36;;;;;;;1.95;1.85;;;;;;;11.48;100.00;95531.56;5110661;28;20060;-72
2023/08/28 07:26:03;;;;;;;2.10;1.60;;;;;;;11.48;100.00;95532.38;5111498;27;20561;-72
2023/08/28 07:28:29;;;;;;;3.40;2.20;;;;;;;11.45;100.00;95536.16;5112100;27;20411;-72
2023/08/28 07:30:59;;;;;;;2.70;1.70;;;;;;;11.63;100.00;95510.75;5117777;27;20057;-72
2023/08/28 07:33:25;;;;;;;1.65;1.55;;;;;;;11.55;100.00;95533.44;5110841;27;20028;-73
2023/08/28 07:35:51;;;;;;;2.22;1.77;;;;;;;11.55;100.00;95524.69;5104510;27;20026;-73
2023/08/28 07:38:17;;;;;;;2.70;1.88;;;;;;;11.55;100.00;95525.53;5111236;28;20059;-73
2023/08/28 07:40:43;;;;;;;4.82;2.20;;;;;;;11.49;100.00;95541.13;5117145;28;20129;-73
2023/08/28 07:43:08;;;;;;;1.83;1.73;;;;;;;11.51;100.00;95537.38;5121371;28;20020;-73
2023/08/28 07:45:34;;;;;;;1.50;1.40;;;;;;;11.67;100.00;95527.94;5128585;28;20049;-72
2023/08/28 07:47:59;;;;;;;1.75;1.65;;;;;;;11.69;100.00;95536.50;5105895;28;20039;-72
2023/08/28 07:50:28;;;;;;;2.17;1.55;;;;;;;11.64;100.00;95534.34;5107825;28;20024;-74
2023/08/28 07:52:53;;;;;;;1.75;1.33;;;;;;;11.68;100.00;95535.69;5102131;28;20036;-74
2023/08/28 07:55:19;;;;;;;1.75;1.65;;;;;;;11.56;100.00;95524.56;5096966;28;20016;-72
2023/08/28 07:57:44;;;;;;;2.35;1.77;;;;;;;11.65;100.00;95529.88;5092694;28;20031;-73
2023/08/28 08:00:13;;;;;;;1.73;1.63;;;;;;;11.65;100.00;95533.38;5101234;28;20575;-72
2023/08/28 08:02:39;;;;;;;2.10;1.58;;;;;;;11.63;100.00;95537.13;5121169;28;20032;-72
2023/08/28 08:05:05;;;;;;;2.20;1.40;;;;;;;11.72;100.00;95539.69;5114655;28;20609;-73
2023/08/28 08:07:32;;;;;;;2.83;1.48;;;;;;;11.71;100.00;95550.38;5108812;28;20136;-74
2023/08/28 08:09:58;;;;;;;1.50;1.40;;;;;;;11.78;100.00;95550.59;5113551;28;20024;-73
2023/08/28 08:12:23;;;;;;;1.60;1.48;;;;;;;11.74;100.00;95539.53;5110531;28;20024;-73
2023/08/28 08:14:49;;;;;;;1.60;1.50;;;;;;;11.69;100.00;95555.81;5108891;28;20384;-73
2023/08/28 08:17:14;;;;;;;1.80;1.70;;;;;;;11.74;100.00;95584.38;5107065;28;20122;-72
2023/08/28 08:19:40;;;;;;;1.65;1.55;;;;;;;11.73;100.00;95575.63;5116455;28;20027;-73
2023/08/28 08:22:06;;;;;;;1.48;1.30;;;;;;;11.72;100.00;95573.97;5108691;28;20477;-73
2023/08/28 08:24:32;;;;;;;1.38;1.27;;;;;;;11.85;100.00;95578.84;5116462;28;20032;-72
2023/08/28 08:26:57;;;;;;;2.92;1.10;;;;;;;11.79;100.00;95582.09;5112729;27;20023;-73
2023/08/28 08:29:23;;;;;;;1.48;1.38;;;;;;;11.71;100.00;95596.03;5109976;27;20048;-73
2023/08/28 08:31:50;;;;;;;2.22;1.30;;;;;;;11.60;100.00;95590.97;5121009;27;20476;-71
2023/08/28 08:34:18;;;;;;;1.40;1.30;;;;;;;11.62;100.00;95594.31;5103793;27;20073;-73
2023/08/28 08:36:43;;;;;;;1.35;1.23;;;;;;;11.60;100.00;95617.34;5101613;27;20046;-74
2023/08/28 08:39:09;;;;;;;1.67;1.42;;;;;;;11.74;100.00;95618.66;5121288;27;20028;-74
2023/08/28 08:41:34;;;;;;;1.60;1.40;;;;;;;11.64;100.00;95592.38;5118444;27;20071;-76
2023/08/28 08:44:00;;;;;;;1.40;1.33;;;;;;;11.65;100.00;95609.84;5117651;27;20060;-76
2023/08/28 08:46:26;;;;;;;1.58;1.40;;;;;;;11.60;100.00;95602.38;5119717;27;20024;-75
2023/08/28 08:48:56;;;;;;;1.65;1.45;;;;;;;11.51;100.00;95611.19;5119381;27;20471;-74
2023/08/28 08:51:25;;;;;;;1.52;1.33;;;;;;;11.48;100.00;95611.47;5102982;27;20110;-74
2023/08/28 08:54:04;;;;;;;1.30;1.20;;;;;;;11.61;100.00;95619.03;5114078;27;20183;-74
2023/08/28 08:56:36;;;;;;;1.30;1.30;;;;;;;11.60;100.00;95627.91;5112349;27;20052;-75
2023/08/28 08:59:03;;;;;;;1.48;1.33;;;;;;;11.54;100.00;95624.06;5103564;28;20028;-73
2023/08/28 09:01:29;;;;;;;1.60;1.50;;;;;;;11.69;100.00;95620.91;5122246;27;20070;-76
2023/08/28 09:03:56;;;;;;;1.10;1.10;;;;;;;11.61;100.00;95626.94;5113005;27;20036;-75
2023/08/28 09:06:22;;;;;;;1.35;1.25;;;;;;;11.60;100.00;95622.63;5096545;28;20020;-76
2023/08/28 09:08:48;;;;;;;1.15;1.15;;;;;;;11.51;100.00;95628.81;5101009;28;20026;-72
2023/08/28 09:11:13;;;;;;;1.10;1.10;;;;;;;11.65;100.00;95635.38;5121238;27;20632;-76
2023/08/28 09:13:38;;;;;;;1.27;1.27;;;;;;;11.56;100.00;95634.44;5119528;27;20023;-74
2023/08/28 09:16:04;;;;;;;1.40;1.30;;;;;;;11.60;100.00;95631.38;5108909;27;20020;-72
2023/08/28 09:18:30;;;;;;;2.15;1.35;;;;;;;11.59;100.00;95634.16;5126639;27;20034;-75
2023/08/28 09:21:09;;;;;;;1.30;1.30;;;;;;;11.60;100.00;95641.06;5107166;27;20026;-74
2023/08/28 09:23:41;;;;;;;1.30;1.25;;;;;;;11.63;100.00;95632.91;5119336;27;20035;-73
2023/08/28 09:26:07;;;;;;;0.90;0.90;;;;;;;11.59;100.00;95644.69;5115722;27;20027;-71
2023/08/28 09:28:32;;;;;;;1.30;1.30;;;;;;;11.53;100.00;95645.31;5128203;27;20097;-75
2023/08/28 09:30:57;;;;;;;1.60;1.25;;;;;;;11.63;100.00;95642.59;5118600;27;20040;-75
2023/08/28 09:33:23;;;;;;;1.60;1.50;;;;;;;11.66;100.00;95640.50;5115516;27;20023;-74
2023/08/28 09:35:48;;;;;;;1.50;1.40;;;;;;;11.61;100.00;95635.66;5111945;27;20042;-80
2023/08/28 09:38:14;;;;;;;1.23;1.15;;;;;;;11.72;100.00;95637.25;5115541;27;20024;-75
2023/08/28 09:40:41;;;;;;;1.60;1.50;;;;;;;11.69;100.00;95645.47;5115174;27;20028;-75
2023/08/28 09:43:16;;;;;;;1.50;1.40;;;;;;;11.84;100.00;95647.59;5112390;27;20616;-73
2023/08/28 09:45:42;;;;;;;;;;;;;;;11.80;100.00;95651.50;5104750;28;20039;-71
2023/08/28 09:48:08;;;;;;;1.25;1.25;;;;;;;11.77;100.00;95644.72;5101576;28;19908;-71
2023/08/28 09:50:37;;;;;;;1.75;1.65;;;;;;;11.68;100.00;95651.72;5108373;27;20016;-71
2023/08/28 09:53:12;;;;;;;1.63;1.40;;;;;;;11.76;100.00;95650.97;5126945;27;20057;-71
2023/08/28 09:55:51;;;;;;;;;;;;;;;11.72;100.00;95647.00;5125924;27;20023;-70
2023/08/28 09:58:17;;;;;;;1.70;1.60;;;;;;;11.80;100.00;95669.94;5115115;27;19912;-72
2023/08/28 10:00:43;;;;;;;2.15;1.52;;;;;;;11.86;100.00;95658.81;5123806;27;20373;-71
2023/08/28 10:03:13;;;;;;;1.60;1.50;;;;;;;11.77;100.00;95654.44;5114018;27;20065;-71
2023/08/28 10:05:45;;;;;;;1.60;1.50;;;;;;;11.70;100.00;95659.47;5129149;27;20643;-72
2023/08/28 10:08:13;;;;;;;1.73;1.63;;;;;;;11.65;100.00;95644.13;5116451;27;20061;-72
2023/08/28 10:10:41;;;;;;;1.45;1.45;;;;;;;11.64;100.00;95658.28;5124426;27;20106;-72
2023/08/28 10:13:13;;;;;;;1.30;1.30;;;;;;;11.77;100.00;95657.06;5112332;27;20042;-72
2023/08/28 10:15:53;;;;;;;1.67;1.58;;;;;;;11.62;100.00;95673.44;5117773;27;20103;-72
2023/08/28 10:18:47;;;;;;;1.58;1.48;;;;;;;11.58;100.00;95649.16;5125711;27;20467;-73
2023/08/28 10:21:16;;;;;;;1.80;1.70;;;;;;;11.56;100.00;95671.38;5115337;27;20067;-72
2023/08/28 10:23:43;;;;;;;1.70;1.60;;;;;;;11.43;100.00;95682.25;5117217;27;20094;-74
2023/08/28 10:26:10;;;;;;;1.42;1.40;;;;;;;11.37;100.00;95677.59;5117778;27;20023;-73
2023/08/28 10:28:36;;;;;;;3.05;1.60;;;;;;;11.36;100.00;95665.41;5120819;27;20023;-72
2023/08/28 10:31:05;;;;;;;1.77;1.60;;;;;;;11.48;100.00;95676.56;5119912;27;20050;-72
2023/08/28 10:33:32;;;;;;;3.22;1.50;;;;;;;11.47;100.00;95654.63;5106329;27;20535;-72
2023/08/28 10:36:00;;;;;;;1.50;1.50;;;;;;;11.45;100.00;95651.31;5115510;27;20476;-72
2023/08/28 10:38:26;;;;;;;1.80;1.70;;;;;;;11.45;100.00;95652.16;5109642;27;20023;-71
2023/08/28 10:40:55;;;;;;;1.77;1.60;;;;;;;11.40;100.00;95659.69;5114834;27;20027;-72
2023/08/28 10:43:23;;;;;;;1.60;1.50;;;;;;;11.34;100.00;95662.88;5110226;27;20475;-72
2023/08/28 10:45:52;;;;;;;3.45;1.60;;;;;;;11.29;100.00;95673.91;5112159;27;20070;-70
2023/08/28 10:48:18;;;;;;;1.70;1.60;;;;;;;11.27;100.00;95670.59;5112244;27;20113;-72
2023/08/28 10:50:44;;;;;;;1.60;1.50;;;;;;;11.26;100.00;95670.72;5105369;27;20040;-73
2023/08/28 10:53:15;;;;;;;1.80;1.67;;;;;;;11.30;100.00;95657.09;5105694;27;20023;-72
2023/08/28 10:55:57;;;;;;;1.48;1.38;;;;;;;11.38;100.00;95653.69;5119660;27;20023;-72
2023/08/28 10:58:23;;;;;;;2.20;1.58;;;;;;;11.45;100.00;95648.69;5118798;27;20416;-71
2023/08/28 11:01:16;;;;;;;1.73;1.63;;;;;;;11.44;100.00;95645.22;5107925;27;20019;-71
2023/08/28 11:03:50;;;;;;;1.42;1.35;;;;;;;11.46;100.00;95651.19;5102702;27;20031;-72
2023/08/28 11:06:45;;;;;;;1.58;1.58;;;;;;;11.45;100.00;95644.25;5116290;27;20126;-73
2023/08/28 11:09:29;;;;;;;1.70;1.60;;;;;;;11.43;100.00;95643.56;5102130;27;20556;-71
2023/08/28 11:11:57;;;;;;;1.70;1.60;;;;;;;11.49;100.00;95649.22;5113751;27;20023;-70
2023/08/28 11:14:23;;;;;;;1.50;1.40;;;;;;;11.54;100.00;95660.13;5122574;27;20133;-71
2023/08/28 11:16:48;;;;;;;1.83;1.70;;;;;;;11.44;100.00;95652.28;5108359;27;20031;-71
2023/08/28 11:19:14;;;;;;;1.70;1.60;;;;;;;11.37;100.00;95646.78;5107723;27;20020;-72
2023/08/28 11:21:42;;;;;;;1.65;1.27;;;;;;;11.60;100.00;95630.53;5103868;27;20030;-69
2023/08/28 11:24:36;;;;;;;1.52;1.40;;;;;;;11.44;100.00;95652.28;5098213;28;20122;-69
2023/08/28 11:27:02;;;;;;;1.73;1.63;;;;;;;11.40;100.00;95653.56;5075468;28;20036;-72